• Join FlightAware (Why Join?)
  • Login
  • US Flag 
06:11PM EDT


 

Airport Tracker/Info


-or-


 

Live Flight TrackerFlight Track Log ✈ DAL268 ✈ 02-Aug-2013 ✈ KSFO - KJFK

Flight Track Log - Related Links

Times and Time Zones

All times are in EDT time to prevent confusion due to time zone crossing. See the DAL268 flight status page for this flight to view local times or setup timezone preferences in your user account.

Time Position Orientation Groundspeed Altitude Reporting Facility
EDT Latitude Longitude Course Direction KTS MPH feet Rate Location/Type
02:40PM 37.6110 -122.3780 58° Northeast 86 99  Level FlightAware
02:40PM 37.6210 -122.3710 29° Northeast 165 190 1,260 Level FlightAware
02:40PM 37.6333 -122.3620 30° Northeast 166 191 800 2,520 Climbing FlightAware ADS-B
02:41PM 37.6391 -122.3550 44° Northeast 173 199 1,100 1,740 Climbing FlightAware ADS-B
02:41PM 37.6491 -122.3430 44° Northeast 192 221 1,600 2,100 Climbing FlightAware ADS-B
02:41PM 37.6605 -122.3280 46° Northeast 204 235 2,300 2,220 Climbing FlightAware ADS-B
02:41PM 37.6714 -122.3150 43° Northeast 221 254 2,800 2,160 Climbing FlightAware ADS-B
02:42PM 37.6825 -122.3000 47° Northeast 237 273 3,400 1,920 Climbing FlightAware ADS-B
02:42PM 37.6948 -122.2840 46° Northeast 262 302 3,800 2,160 Climbing FlightAware ADS-B
02:42PM 37.7072 -122.2670 47° Northeast 269 310 4,500 2,880 Climbing FlightAware ADS-B
02:43PM 37.7268 -122.2420 45° Northeast 274 315 5,600 3,120 Climbing FlightAware ADS-B
02:43PM 37.7455 -122.2210 42° Northeast 278 320 6,700 3,060 Climbing FlightAware ADS-B
02:43PM 37.7615 -122.2050 38° Northeast 283 326 7,400 2,880 Climbing FlightAware ADS-B
02:43PM 37.7794 -122.1880 37° Northeast 286 329 8,300 3,060 Climbing FlightAware ADS-B
02:44PM 37.7989 -122.1690 38° Northeast 289 333 9,200 2,820 Climbing FlightAware ADS-B
02:44PM 37.8163 -122.1530 36° Northeast 296 341 9,900 2,340 Climbing FlightAware ADS-B
02:44PM 37.8500 -122.1210 37° Northeast 313 360 11,000 1,560 Climbing FlightAware ADS-B
02:45PM 37.8890 -122.0850 36° Northeast 353 406 11,500 1,140 Climbing FlightAware ADS-B
02:45PM 37.9306 -122.0450 37° Northeast 380 437 12,200 1,740 Climbing FlightAware ADS-B
02:46PM 37.9736 -122.0040 37° Northeast 392 451 13,300 2,280 Climbing FlightAware ADS-B
02:47PM 38.0222 -121.9570 37° Northeast 399 459 14,600 2,040 Climbing FlightAware ADS-B
02:47PM 38.0962 -121.8870 37° Northeast 409 471 16,100 1,800 Climbing FlightAware ADS-B
02:48PM 38.1400 -121.8450 37° Northeast 428 493 17,000 1,980 Climbing FlightAware
02:48PM 38.2010 -121.7850 38° Northeast 436 502 18,400 1,920 Climbing FlightAware
02:49PM 38.2580 -121.7310 37° Northeast 446 513 19,400 1,680 Climbing FlightAware
02:50PM 38.3160 -121.6750 37° Northeast 455 524 20,400 1,740 Climbing FlightAware
02:50PM 38.3740 -121.6190 37° Northeast 464 534 21,400 1,620 Climbing FlightAware
02:51PM 38.4340 -121.5570 39° Northeast 475 547 22,300 1,560 Climbing FlightAware
02:51PM 38.4820 -121.4870 49° Northeast 485 558 23,200 1,500 Climbing FlightAware
02:52PM 38.5310 -121.4040 53° Northeast 491 565 24,100 1,440 Climbing FlightAware
02:52PM 38.5770 -121.3240 54° Northeast 499 574 24,900 1,500 Climbing FlightAware
02:53PM 38.6320 -121.2280 54° Northeast 506 582 25,900 1,440 Climbing FlightAware
02:53PM 38.6502 -121.1970 53° Northeast 507 583 26,200 1,320 Climbing FlightAware ADS-B
02:54PM 38.7300 -121.0590 53° Northeast 519 597 27,500 1,260 Climbing FlightAware
02:55PM 38.7750 -120.9800 54° Northeast 525 604 28,100 1,260 Climbing FlightAware
02:55PM 38.8310 -120.8840 53° Northeast 530 610 29,000 1,500 Climbing FlightAware
02:56PM 38.8830 -120.7930 54° Northeast 529 609 30,000 1,500 Climbing FlightAware
02:57PM 38.9400 -120.6960 53° Northeast 529 609 30,900 1,380 Climbing FlightAware
02:57PM 38.9960 -120.5980 54° Northeast 529 609 31,800 1,320 Climbing FlightAware
02:58PM 39.0430 -120.5180 53° Northeast 529 609 32,500 1,320 Climbing FlightAware
02:58PM 39.0920 -120.4330 53° Northeast 528 608 33,300 1,320 Climbing FlightAware
02:59PM 39.1460 -120.3370 54° Northeast 527 606 34,100 1,320 Climbing FlightAware
03:00PM 39.1820 -120.2740 54° Northeast 525 604 34,700 720 Climbing FlightAware
03:00PM 39.2510 -120.1520 54° Northeast 529 609 35,000 180 Climbing FlightAware
03:01PM 39.2980 -120.0710 53° Northeast 529 609 35,000  Level FlightAware
03:01PM 39.3420 -119.9930 54° Northeast 526 605 35,000  Level FlightAware
03:02PM 39.4240 -119.8470 54° Northeast 527 606 35,000  Level FlightAware
03:03PM 39.4760 -119.7540 54° Northeast 528 608 35,000  Level FlightAware
03:03PM 39.5220 -119.6720 54° Northeast 527 606 35,000  Level FlightAware
03:04PM 39.5730 -119.5810 54° Northeast 527 606 35,000 240 Level FlightAware
03:05PM 39.6200 -119.4980 54° Northeast 531 611 35,300 840 Climbing FlightAware
03:05PM 39.6700 -119.4080 54° Northeast 532 612 36,000 1,080 Climbing FlightAware
03:06PM 39.7220 -119.3140 54° Northeast 531 611 36,600 780 Climbing FlightAware
03:06PM 39.7770 -119.2140 54° Northeast 533 613 37,000 300 Climbing FlightAware
03:07PM 39.8260 -119.1260 54° Northeast 536 617 37,000  Level FlightAware
03:08PM 39.8900 -119.0100 54° Northeast 535 616 37,000  Level FlightAware
03:08PM 39.9360 -118.9250 55° Northeast 536 617 37,000  Level FlightAware
03:09PM 39.9840 -118.8370 55° Northeast 535 616 37,000  Level FlightAware
03:09PM 40.0370 -118.7400 54° Northeast 536 617 37,000  Level FlightAware
03:10PM 40.0780 -118.6640 55° Northeast 536 617 37,000  Level FlightAware
03:10PM 40.1200 -118.5780 57° Northeast 534 615 37,000  Level FlightAware
03:11PM 40.1600 -118.4530 67° East 530 610 37,000  Level FlightAware
03:12PM 40.1940 -118.3280 70° East 531 611 37,000  Level FlightAware
03:12PM 40.2240 -118.2200 70° East 531 611 37,000  Level FlightAware
03:13PM 40.2500 -118.1240 70° East 532 612 37,000  Level FlightAware
03:14PM 40.2830 -118.0000 71° East 533 613 37,000  Level FlightAware
03:14PM 40.3140 -117.8870 70° East 534 615 37,000  Level FlightAware
03:15PM 40.3470 -117.7630 71° East 535 616 37,000  Level FlightAware
03:16PM 40.3740 -117.6670 70° East 535 616 37,000  Level FlightAware
03:16PM 40.4000 -117.5740 70° East 535 616 37,000  Level FlightAware
03:17PM 40.4260 -117.4800 70° East 535 616 37,000  Level FlightAware
03:17PM 40.4510 -117.3870 71° East 535 616 37,000  Level FlightAware
03:18PM 40.4770 -117.2930 70° East 535 616 37,000  Level FlightAware
03:19PM 40.5030 -117.2000 70° East 535 616 37,000  Level FlightAware
03:19PM 40.5290 -117.1060 70° East 535 616 37,000  Level FlightAware
03:20PM 40.5590 -117.0000 70° East 535 616 37,000  Level FlightAware
03:20PM 40.5860 -116.9010 70° East 535 616 37,000  Level FlightAware
03:21PM 40.6120 -116.8070 70° East 535 616 37,000  Level FlightAware
03:22PM 40.6380 -116.7130 70° East 535 616 37,000  Level FlightAware
03:22PM 40.6610 -116.6300 70° East 535 616 37,000  Level FlightAware
03:23PM 40.6860 -116.5380 70° East 535 616 37,000  Level FlightAware
03:23PM 40.7100 -116.4500 70° East 535 616 37,000  Level FlightAware
03:24PM 40.7951 -116.0840 73° East 541 623 37,000  Level FlightAware ADS-B
03:25PM 40.8206 -115.9880 71° East 542 624 37,000  Level FlightAware ADS-B
03:25PM 40.8472 -115.8860 71° East 543 625 37,000  Level FlightAware ADS-B
03:26PM 40.8728 -115.7890 71° East 543 625 37,000  Level FlightAware ADS-B
03:28PM 40.9966 -115.3120 71° East 542 624 37,000  Level FlightAware ADS-B
03:29PM 41.0215 -115.2140 71° East 541 623 37,000  Level FlightAware ADS-B
03:29PM 41.0459 -115.1190 71° East 540 621 37,000  Level FlightAware ADS-B
03:30PM 41.0703 -115.0230 71° East 539 620 37,000  Level FlightAware ADS-B
03:30PM 41.0976 -114.9160 71° East 540 621 37,000  Level FlightAware ADS-B
03:31PM 41.1213 -114.8210 72° East 538 619 37,000  Level FlightAware ADS-B
03:31PM 41.1455 -114.7250 71° East 537 618 37,000  Level FlightAware ADS-B
03:32PM 41.1694 -114.6290 72° East 538 619 37,000  Level FlightAware ADS-B
03:32PM 41.1930 -114.5350 72° East 535 616 37,000  Level FlightAware ADS-B
03:33PM 41.2168 -114.4390 72° East 534 615 37,000  Level FlightAware ADS-B
03:33PM 41.2401 -114.3440 72° East 533 613 37,000  Level FlightAware ADS-B
03:34PM 41.2644 -114.2450 72° East 533 613 37,000  Level FlightAware ADS-B
03:35PM 41.3081 -114.0660 72° East 535 616 37,000  Level FlightAware ADS-B
03:35PM 41.3313 -113.9710 72° East 534 615 37,000  Level FlightAware ADS-B
03:36PM 41.3519 -113.8830 73° East 534 615 37,000  Level FlightAware ADS-B
03:36PM 41.3669 -113.8030 76° East 531 611 37,000  Level FlightAware ADS-B
03:37PM 41.3806 -113.7060 79° East 530 610 37,000  Level FlightAware ADS-B
03:37PM 41.3933 -113.6080 80° East 531 611 37,000  Level FlightAware ADS-B
03:38PM 41.4055 -113.5110 80° East 531 611 37,000 240 Level FlightAware ADS-B
03:38PM 41.4179 -113.4130 80° East 534 615 37,300 660 Climbing FlightAware ADS-B
03:39PM 41.4308 -113.3100 80° East 535 616 37,700 660 Climbing FlightAware ADS-B
03:39PM 41.4447 -113.1980 81° East 536 617 38,100 780 Climbing FlightAware ADS-B
03:40PM 41.4576 -113.0940 81° East 536 617 38,600 840 Climbing FlightAware ADS-B
03:40PM 41.4702 -112.9920 81° East 534 615 39,000 360 Climbing FlightAware ADS-B
03:41PM 41.4821 -112.8940 81° East 529 609 39,000  Level FlightAware ADS-B
03:41PM 41.4957 -112.7830 81° East 526 605 39,000  Level FlightAware ADS-B
03:42PM 41.5074 -112.6850 81° East 527 606 39,000  Level FlightAware ADS-B
03:42PM 41.5189 -112.5890 81° East 529 609 39,000  Level FlightAware ADS-B
03:43PM 41.5317 -112.4810 81° East 529 609 39,000  Level FlightAware ADS-B
03:44PM 41.5430 -112.3770 82° East 530 610 39,000  Level FlightAware ADS-B
03:44PM 41.5533 -112.2770 82° East 532 612 39,000  Level FlightAware ADS-B
03:45PM 41.5642 -112.1720 82° East 534 615 39,000  Level FlightAware ADS-B
03:45PM 41.5752 -112.0640 82° East 536 617 39,000  Level FlightAware ADS-B
03:46PM 41.5853 -111.9660 82° East 537 618 39,000  Level FlightAware ADS-B
03:46PM 41.5954 -111.8660 82° East 539 620 39,000  Level FlightAware ADS-B
03:47PM 41.6055 -111.7660 82° East 540 621 39,000  Level FlightAware ADS-B
03:47PM 41.6156 -111.6660 82° East 540 621 39,000  Level FlightAware ADS-B
03:48PM 41.6268 -111.5540 82° East 541 623 39,000  Level FlightAware ADS-B
03:48PM 41.6381 -111.4380 83° East 541 623 39,000  Level FlightAware ADS-B
03:49PM 41.6478 -111.3380 83° East 540 621 39,000  Level FlightAware ADS-B
03:49PM 41.6575 -111.2370 83° East 541 623 39,000  Level FlightAware ADS-B
03:50PM 41.6671 -111.1370 83° East 541 623 39,000  Level FlightAware ADS-B
03:50PM 41.6766 -111.0370 83° East 542 624 39,000  Level FlightAware ADS-B
03:51PM 41.6861 -110.9350 83° East 543 625 39,000  Level FlightAware ADS-B
03:51PM 41.6953 -110.8360 83° East 544 626 39,000  Level FlightAware ADS-B
03:52PM 41.7086 -110.6900 83° East 543 625 39,000  Level FlightAware ADS-B
03:53PM 41.7233 -110.5250 83° East 541 623 39,000  Level Salt Lake Center
03:54PM 41.7431 -110.3028 83° East 539 620 39,000  Level Salt Lake Center
03:55PM 41.7600 -110.1114 83° East 540 621 39,000  Level Salt Lake Center
03:56PM 41.7792 -109.8881 83° East 541 623 39,000  Level Salt Lake Center
03:57PM 41.7942 -109.6967 84° East 540 621 39,000  Level Salt Lake Center
03:58PM 41.8133 -109.4731 83° East 539 620 39,000  Level Salt Lake Center
03:59PM 41.8292 -109.2806 84° East 539 620 39,000  Level Salt Lake Center
04:00PM 41.8428 -109.0883 85° East 538 619 39,000  Level Salt Lake Center
04:01PM 41.8603 -108.8636 84° East 539 620 39,000  Level Salt Lake Center
04:02PM 41.8736 -108.6711 85° East 539 620 39,000  Level Salt Lake Center
04:03PM 41.8892 -108.4464 85° East 540 621 39,000  Level Salt Lake Center
04:04PM 41.9053 -108.2550 83° East 541 623 39,000  Level Salt Lake Center
04:05PM 41.9186 -108.0286 85° East 547 629 39,000  Level Salt Lake Center
04:07PM 41.9314 -107.8333 85° East 549 632 39,000  Level Salt Lake Center
04:08PM 41.9447 -107.6103 85° East 540 621 39,000  Level Salt Lake Center
04:14PM 42.0190 -106.3550 85° East 545 627 39,000  Level FlightAware
04:14PM 42.0240 -106.2450 86° East 545 627 39,000  Level FlightAware
04:15PM 42.0310 -106.1180 86° East 545 627 39,000  Level FlightAware
04:16PM 42.0360 -106.0060 87° East 545 627 39,000  Level FlightAware
04:16PM 42.0430 -105.8800 86° East 546 628 39,000  Level FlightAware
04:17PM 42.0490 -105.7510 86° East 546 628 39,000  Level FlightAware
04:17PM 42.0540 -105.6320 87° East 546 628 39,000  Level FlightAware
04:18PM 42.0600 -105.5250 86° East 546 628 39,000  Level FlightAware
04:19PM 42.0650 -105.3870 87° East 547 629 39,000  Level FlightAware
04:19PM 42.0700 -105.2640 87° East 549 632 39,000  Level FlightAware
04:20PM 42.0747 -105.1820 86° East 549 632 39,000  Level FlightAware ADS-B
04:20PM 42.0823 -105.0790 84° East 552 635 39,000  Level FlightAware ADS-B
04:21PM 42.0917 -104.9700 83° East 549 632 39,000  Level FlightAware ADS-B
04:21PM 42.1009 -104.8650 83° East 549 632 39,000  Level FlightAware ADS-B
04:22PM 42.1101 -104.7590 83° East 553 636 39,000  Level FlightAware ADS-B
04:22PM 42.1190 -104.6560 83° East 554 638 39,000  Level FlightAware ADS-B
04:23PM 42.1287 -104.5420 83° East 554 638 39,000  Level FlightAware ADS-B
04:23PM 42.1374 -104.4390 83° East 551 634 39,000  Level FlightAware ADS-B
04:24PM 42.1467 -104.3270 84° East 550 633 39,000  Level FlightAware ADS-B
04:24PM 42.1551 -104.2240 84° East 550 633 39,000  Level FlightAware ADS-B
04:25PM 42.1663 -104.0860 84° East 549 632 39,000  Level FlightAware ADS-B
04:25PM 42.1745 -103.9830 84° East 548 631 39,000  Level FlightAware ADS-B
04:26PM 42.1826 -103.8800 84° East 548 631 39,000  Level FlightAware ADS-B
04:26PM 42.1905 -103.7780 84° East 549 632 39,000  Level FlightAware ADS-B
04:27PM 42.1984 -103.6760 84° East 548 631 39,000  Level FlightAware ADS-B
04:27PM 42.2062 -103.5740 84° East 549 632 39,000  Level FlightAware ADS-B
04:28PM 42.2140 -103.4690 84° East 549 632 39,000  Level FlightAware ADS-B
04:28PM 42.2217 -103.3660 84° East 549 632 39,000  Level FlightAware ADS-B
04:29PM 42.2300 -103.2520 84° East 549 632 39,000  Level FlightAware ADS-B
04:30PM 42.2388 -103.1320 84° East 550 633 39,000  Level FlightAware ADS-B
04:30PM 42.2471 -103.0150 84° East 548 631 39,000  Level FlightAware ADS-B
04:31PM 42.2544 -102.9110 85° East 549 632 39,000  Level FlightAware ADS-B
04:31PM 42.2617 -102.8060 85° East 549 632 39,000  Level FlightAware ADS-B
04:32PM 42.2687 -102.7040 85° East 550 633 39,000  Level FlightAware ADS-B
04:32PM 42.2762 -102.5920 85° East 550 633 39,000  Level FlightAware ADS-B
04:33PM 42.2830 -102.4890 85° East 550 633 39,000  Level FlightAware ADS-B
04:33PM 42.2908 -102.3710 85° East 551 634 39,000  Level FlightAware ADS-B
04:34PM 42.2982 -102.2560 85° East 551 634 39,000  Level FlightAware ADS-B
04:35PM 42.3089 -102.0880 85° East 551 634 39,000  Level FlightAware ADS-B
04:35PM 42.3178 -101.9633 85° East 553 636 39,000  Level Denver Center
04:36PM 42.3286 -101.7694 86° East 549 632 39,000  Level Denver Center
04:37PM 42.3425 -101.5403 85° East 546 628 39,000  Level Denver Center
04:38PM 42.3533 -101.3439 86° East 547 629 39,000  Level Denver Center
04:40PM 42.3658 -101.1131 86° East 549 632 39,000  Level Denver Center
04:41PM 42.3758 -100.9153 86° East 550 633 39,000  Level Denver Center
04:42PM 42.3878 -100.6836 86° East 551 634 39,000  Level Denver Center
04:43PM 42.3972 -100.4872 86° East 549 632 39,000  Level Denver Center
04:44PM 42.3953 -100.2892 91° East 552 635 39,000  Level Denver Center
04:45PM 42.3822 -100.0603 94° East 549 632 39,000  Level Denver Center
04:46PM 42.3703 -99.8636 95° East 547 629 39,000  Level Denver Center
04:46PM 42.3639 -99.7556 95° East 548 631 39,000  Level Minneapolis Center
04:47PM 42.3494 -99.5086 94° East 548 631 39,000  Level Minneapolis Center
04:48PM 42.3378 -99.3036 94° East 547 629 39,000  Level Minneapolis Center
04:49PM 42.3269 -99.0978 94° East 547 629 39,000  Level Minneapolis Center
04:50PM 42.3156 -98.8944 94° East 543 625 39,000  Level Minneapolis Center
04:56PM 42.2470 -97.6790 94° East 541 623 39,000  Level FlightAware
04:57PM 42.2380 -97.5240 94° East 541 623 39,000  Level FlightAware
04:58PM 42.2300 -97.3600 94° East 541 623 39,000  Level FlightAware
04:59PM 42.2240 -97.2420 94° East 542 624 39,000  Level FlightAware
04:59PM 42.2180 -97.1080 93° East 542 624 39,000  Level FlightAware
04:59PM 42.2150 -97.0540 94° East 541 623 39,000  Level FlightAware
05:01PM 42.2050 -96.8290 93° East 541 623 39,000  Level FlightAware
05:01PM 42.2000 -96.7230 94° East 541 623 39,000  Level FlightAware
05:02PM 42.1930 -96.5610 93° East 541 623 39,000  Level FlightAware
05:03PM 42.1880 -96.4320 93° East 541 623 39,000  Level FlightAware
05:03PM 42.1790 -96.2930 95° East 541 623 39,000  Level FlightAware
05:04PM 42.1730 -96.1610 93° East 542 624 39,000  Level FlightAware
05:04PM 42.1670 -96.0370 94° East 541 623 39,000  Level FlightAware
05:05PM 42.1610 -95.9190 94° East 541 623 39,000  Level FlightAware
05:06PM 42.1550 -95.7990 94° East 541 623 39,000  Level FlightAware
05:06PM 42.1490 -95.6730 94° East 540 621 39,000  Level FlightAware
05:07PM 42.1450 -95.5940 94° East 539 620 39,000  Level FlightAware
05:07PM 42.1450 -95.4700 90° East 535 616 39,000  Level FlightAware
05:08PM 42.1530 -95.3350 85° East 529 609 39,000  Level FlightAware
05:09PM 42.1610 -95.2260 84° East 530 610 39,000  Level FlightAware
05:09PM 42.1700 -95.0990 84° East 530 610 39,000  Level FlightAware
05:10PM 42.1790 -94.9870 84° East 529 609 39,000  Level FlightAware
05:10PM 42.1870 -94.8670 85° East 528 608 39,000  Level FlightAware
05:11PM 42.1960 -94.7510 84° East 528 608 39,000  Level FlightAware
05:11PM 42.2020 -94.6750 84° East 528 608 39,000  Level FlightAware
05:12PM 42.2130 -94.5230 84° East 527 606 39,000  Level FlightAware
05:13PM 42.2210 -94.4160 84° East 527 606 39,000  Level FlightAware
05:13PM 42.2290 -94.2970 85° East 528 608 39,000  Level FlightAware
05:14PM 42.2370 -94.1850 84° East 529 609 39,000  Level FlightAware
05:14PM 42.2460 -94.0630 84° East 529 609 39,000  Level FlightAware
05:15PM 42.2530 -93.9570 85° East 529 609 39,000  Level FlightAware
05:16PM 42.2610 -93.8410 85° East 530 610 39,000  Level FlightAware
05:16PM 42.2690 -93.7210 85° East 530 610 39,000  Level FlightAware
05:17PM 42.2760 -93.6050 85° East 531 611 39,000  Level FlightAware
05:17PM 42.2830 -93.4980 85° East 532 612 39,000  Level FlightAware
05:18PM 42.2910 -93.3790 85° East 533 613 39,000  Level FlightAware
05:19PM 42.2980 -93.2610 85° East 533 613 39,000  Level FlightAware
05:19PM 42.3050 -93.1520 85° East 533 613 39,000  Level FlightAware
05:20PM 42.3100 -93.0640 86° East 533 613 39,000  Level FlightAware
05:20PM 42.3210 -92.8830 85° East 534 615 39,000  Level FlightAware
05:21PM 42.3270 -92.7730 86° East 533 613 39,000  Level FlightAware
05:22PM 42.3340 -92.6560 85° East 533 613 39,000  Level FlightAware
05:22PM 42.3400 -92.5430 86° East 533 613 39,000  Level FlightAware
05:23PM 42.3520 -92.3240 86° East 532 612 39,000  Level FlightAware
05:24PM 42.3580 -92.2110 86° East 531 611 39,000  Level FlightAware
05:24PM 42.3640 -92.0930 86° East 530 610 39,000  Level FlightAware
05:25PM 42.3700 -91.9800 86° East 531 611 39,000  Level FlightAware
05:26PM 42.3760 -91.8550 86° East 531 611 39,000  Level FlightAware
05:26PM 42.3810 -91.7420 87° East 531 611 39,000  Level FlightAware
05:27PM 42.3870 -91.6250 86° East 531 611 39,000  Level FlightAware
05:27PM 42.3920 -91.5110 87° East 531 611 39,000  Level FlightAware
05:28PM 42.3970 -91.4130 86° East 530 610 39,000  Level FlightAware
05:28PM 42.4020 -91.2890 87° East 530 610 39,000  Level FlightAware
05:29PM 42.4080 -91.1620 86° East 530 610 39,000  Level FlightAware
05:30PM 42.4130 -91.0490 87° East 530 610 39,000  Level FlightAware
05:30PM 42.4170 -90.9350 87° East 530 610 39,000  Level FlightAware
05:31PM 42.4220 -90.8230 87° East 530 610 39,000  Level FlightAware
05:31PM 42.4270 -90.7040 87° East 530 610 39,000  Level FlightAware
05:32PM 42.4310 -90.5970 87° East 530 610 39,000  Level FlightAware
05:33PM 42.4360 -90.4660 87° East 530 610 39,000  Level FlightAware
05:33PM 42.4390 -90.3620 88° East 529 609 39,000  Level FlightAware
05:34PM 42.4440 -90.2400 87° East 529 609 39,000  Level FlightAware
05:34PM 42.4480 -90.1170 87° East 529 609 39,000  Level FlightAware
05:35PM 42.4510 -90.0110 88° East 529 609 39,000  Level FlightAware
05:35PM 42.4550 -89.8980 87° East 529 609 39,000  Level FlightAware
05:36PM 42.4590 -89.7610 88° East 530 610 39,000  Level FlightAware
05:37PM 42.4630 -89.6410 87° East 530 610 39,000  Level FlightAware
05:37PM 42.4670 -89.5230 87° East 529 609 39,000  Level FlightAware
05:38PM 42.4700 -89.4000 88° East 529 609 39,000  Level FlightAware
05:38PM 42.4730 -89.3030 88° East 528 608 39,000  Level FlightAware
05:39PM 42.4760 -89.1790 88° East 528 608 39,000  Level FlightAware
05:40PM 42.4800 -89.0220 88° East 527 606 39,000  Level FlightAware
05:41PM 42.4830 -88.8900 88° East 526 605 39,000  Level FlightAware
05:41PM 42.4850 -88.7760 89° East 526 605 39,000  Level FlightAware
05:42PM 42.4880 -88.6690 88° East 526 605 39,000  Level FlightAware
05:42PM 42.4890 -88.6260 88° East 526 605 39,000  Level FlightAware
05:43PM 42.4930 -88.4070 89° East 525 604 39,000  Level FlightAware
05:44PM 42.4950 -88.2780 89° East 525 604 39,000  Level FlightAware
05:44PM 42.4980 -88.1570 88° East 524 603 39,000  Level FlightAware
05:45PM 42.4990 -88.0400 89° East 524 603 39,000  Level FlightAware
05:45PM 42.5010 -87.9320 89° East 526 605 39,000  Level FlightAware
05:46PM 42.5000 -87.8260 91° East 526 605 39,000  Level FlightAware
05:47PM 42.5000 -87.6960 90° East 525 604 39,000  Level FlightAware
05:47PM 42.4990 -87.5900 91° East 525 604 39,000  Level FlightAware
05:48PM 42.4990 -87.4710 90° East 525 604 39,000  Level FlightAware
05:48PM 42.4980 -87.3590 91° East 525 604 39,000  Level FlightAware
05:49PM 42.4980 -87.2320 90° East 523 602 39,000  Level FlightAware
05:50PM 42.4970 -87.1320 91° East 522 601 39,000  Level FlightAware
05:50PM 42.4960 -87.0110 91° East 520 598 39,000  Level FlightAware
05:51PM 42.4950 -86.8990 91° East 519 597 39,000  Level FlightAware
05:51PM 42.4940 -86.7840 91° East 519 597 39,000  Level FlightAware
05:52PM 42.4930 -86.6640 91° East 518 596 39,000  Level FlightAware
05:52PM 42.4920 -86.5740 91° East 518 596 39,000  Level FlightAware
05:53PM 42.4900 -86.4500 91° East 518 596 39,000  Level FlightAware
05:54PM 42.4880 -86.3350 91° East 517 595 39,000  Level FlightAware
05:54PM 42.4870 -86.2170 91° East 517 595 39,000  Level FlightAware
05:55PM 42.4850 -86.1290 92° East 516 594 39,000  Level FlightAware
05:55PM 42.4830 -85.9990 91° East 516 594 39,000  Level FlightAware
05:56PM 42.4810 -85.8810 91° East 515 593 39,000  Level FlightAware
05:57PM 42.4790 -85.7740 91° East 515 593 39,000  Level FlightAware
05:57PM 42.4770 -85.6570 91° East 514 592 39,000  Level FlightAware
05:58PM 42.4750 -85.5570 92° East 513 590 39,000  Level FlightAware
05:58PM 42.4720 -85.4340 92° East 513 590 39,000  Level FlightAware
05:59PM 42.4690 -85.3170 92° East 512 589 39,000  Level FlightAware
05:59PM 42.4670 -85.2230 92° East 511 588 39,000  Level FlightAware
06:00PM 42.4650 -85.1170 91° East 511 588 39,000  Level FlightAware
06:01PM 42.4620 -85.0010 92° East 511 588 39,000  Level FlightAware
06:01PM 42.4590 -84.8990 92° East 510 587 39,000  Level FlightAware
06:02PM 42.4560 -84.7830 92° East 510 587 39,000  Level FlightAware
06:02PM 42.4530 -84.6880 92° East 510 587 39,000  Level FlightAware
06:03PM 42.4500 -84.5950 92° East 510 587 39,000  Level FlightAware
06:04PM 42.4390 -84.3920 94° East 512 589 39,000  Level FlightAware
06:04PM 42.4310 -84.2760 95° East 512 589 39,000  Level FlightAware
06:05PM 42.4240 -84.1600 95° East 511 588 39,000  Level FlightAware
06:05PM 42.4180 -84.0510 94° East 512 589 39,000  Level FlightAware
06:06PM 42.4120 -83.9500 95° East 513 590 39,000  Level FlightAware
06:07PM 42.4040 -83.8350 95° East 514 592 39,000  Level FlightAware
06:07PM 42.3980 -83.7280 94° East 515 593 39,000  Level FlightAware
06:08PM 42.3900 -83.6110 95° East 518 596 39,000  Level FlightAware
06:08PM 42.3820 -83.4950 95° East 520 598 39,000  Level FlightAware
06:09PM 42.3760 -83.3920 94° East 522 601 39,000  Level FlightAware
06:10PM 42.3670 -83.2670 96° East 523 602 39,000  Level FlightAware
06:10PM 42.3600 -83.1590 95° East 524 603 39,000  Level FlightAware
06:11PM 42.3530 -83.0670 96° East 524 603 39,000  Level FlightAware
06:11PM 42.3440 -82.9380 95° East 526 605 39,000  Level FlightAware
06:12PM 42.3350 -82.8170 96° East 527 606 39,000  Level FlightAware
06:12PM 42.3270 -82.7020 95° East 528 608 39,000  Level FlightAware
06:13PM 42.3170 -82.5750 96° East 528 608 39,000  Level FlightAware
06:14PM 42.3110 -82.4910 95° East 529 609 39,000  Level FlightAware
06:14PM 42.3010 -82.3630 96° East 530 610 39,000  Level FlightAware
06:15PM 42.2920 -82.2390 96° East 530 610 39,000  Level FlightAware
06:15PM 42.2810 -82.1050 96° East 531 611 39,000  Level FlightAware
06:16PM 42.2750 -82.0220 96° East 532 612 39,000  Level FlightAware
06:17PM 42.2640 -81.8880 96° East 533 613 39,000  Level FlightAware
06:17PM 42.2540 -81.7650 96° East 534 615 39,000  Level FlightAware
06:18PM 42.2440 -81.6450 96° East 535 616 39,000  Level FlightAware
06:19PM 42.2330 -81.5140 96° East 535 616 39,000  Level FlightAware
06:19PM 42.2220 -81.3860 97° East 536 617 39,000  Level FlightAware
06:20PM 42.2120 -81.2710 97° East 536 617 39,000  Level FlightAware
06:21PM 42.1980 -81.1090 97° East 538 619 39,000  Level FlightAware
06:21PM 42.1880 -80.9940 97° East 538 619 39,000 -360 Level FlightAware
06:22PM 42.1760 -80.8580 97° East 538 619 38,600 -1,140 Descending FlightAware
06:22PM 42.1640 -80.7270 97° East 550 633 37,500 -1,140 Descending FlightAware
06:23PM 42.1530 -80.5990 97° East 554 638 37,100 -720 Descending FlightAware
06:24PM 42.1380 -80.4660 99° East 560 644 36,600 -1,080 Descending FlightAware
06:24PM 42.1250 -80.3610 99° East 562 647 35,900 -1,080 Descending FlightAware
06:25PM 42.1100 -80.2480 100° East 562 647 35,300 -720 Descending FlightAware
06:26PM 42.0900 -80.0880 100° East 555 639 35,000 -300 Descending FlightAware
06:26PM 42.0710 -79.9450 100° East 549 632 35,000  Level FlightAware
06:27PM 42.0570 -79.8350 100° East 546 628 35,000  Level FlightAware
06:27PM 42.0420 -79.7130 99° East 543 625 35,000  Level FlightAware
06:28PM 42.0270 -79.5950 100° East 541 623 35,000  Level FlightAware
06:29PM 42.0130 -79.4870 100° East 539 620 35,000  Level FlightAware
06:29PM 41.9980 -79.3740 100° East 538 619 35,000  Level FlightAware
06:30PM 41.9820 -79.2550 100° East 537 618 35,000  Level FlightAware
06:30PM 41.9650 -79.1300 100° East 536 617 35,000  Level FlightAware
06:31PM 41.9490 -79.0130 100° East 535 616 35,000  Level FlightAware
06:31PM 41.9350 -78.9100 100° East 535 616 35,000  Level FlightAware
06:32PM 41.9190 -78.7920 100° East 536 617 35,000  Level FlightAware
06:32PM 41.9070 -78.7110 101° East 538 619 35,000  Level FlightAware
06:33PM 41.8910 -78.5970 101° East 539 620 35,000  Level FlightAware
06:34PM 41.8740 -78.4740 100° East 539 620 35,000  Level FlightAware
06:34PM 41.8590 -78.3710 101° East 539 620 35,000  Level FlightAware
06:35PM 41.8400 -78.2370 101° East 540 621 35,000  Level FlightAware
06:35PM 41.8260 -78.1410 101° East 542 624 35,000  Level FlightAware
06:36PM 41.8130 -78.0480 101° East 543 625 35,000  Level FlightAware
06:37PM 41.7930 -77.9110 101° East 545 627 35,000  Level FlightAware
06:37PM 41.7740 -77.7800 101° East 547 629 35,000  Level FlightAware
06:38PM 41.7600 -77.6860 101° East 548 631 35,000  Level FlightAware
06:38PM 41.7410 -77.5640 102° East 549 632 35,000  Level FlightAware
06:39PM 41.7220 -77.4350 101° East 549 632 35,000  Level FlightAware
06:41PM 41.6720 -77.1000 101° East 549 632 35,000  Level FlightAware
06:41PM 41.6181 -76.9257 112° Southeast 551 634 35,000  Level FlightAware ADS-B
06:42PM 41.5865 -76.8107 110° East 550 633 35,000  Level FlightAware ADS-B
06:43PM 41.5580 -76.7069 110° East 550 633 35,000  Level FlightAware ADS-B
06:43PM 41.5296 -76.6040 110° East 548 631 35,000  Level FlightAware ADS-B
06:44PM 41.5013 -76.5020 110° East 547 629 35,000 -300 Level FlightAware ADS-B
06:44PM 41.4727 -76.3991 110° East 549 632 34,700 -600 Descending FlightAware ADS-B
06:45PM 41.4453 -76.3007 110° East 546 628 34,400 -600 Descending FlightAware ADS-B
06:45PM 41.4170 -76.1996 110° East 546 628 34,100 -1,500 Descending FlightAware ADS-B
06:46PM 41.3853 -76.0861 110° East 552 635 32,700 -2,460 Descending FlightAware ADS-B
06:46PM 41.3584 -75.9902 110° East 549 632 31,400 -2,700 Descending FlightAware ADS-B
06:47PM 41.3310 -75.8936 111° Southeast 545 627 30,000 -2,460 Descending FlightAware ADS-B
06:47PM 41.3037 -75.7973 111° Southeast 535 616 28,900 -2,160 Descending FlightAware ADS-B
06:48PM 41.2767 -75.7048 111° Southeast 529 609 27,800 -2,220 Descending FlightAware ADS-B
06:48PM 41.2478 -75.6140 113° Southeast 520 598 26,700 -2,220 Descending FlightAware ADS-B
06:49PM 41.2186 -75.5259 114° Southeast 509 586 25,600 -2,580 Descending FlightAware ADS-B
06:49PM 41.1892 -75.4382 114° Southeast 505 581 24,100 -2,460 Descending FlightAware ADS-B
06:50PM 41.1600 -75.3516 114° Southeast 496 571 23,100 -1,080 Descending FlightAware ADS-B
06:51PM 41.1308 -75.2655 114° Southeast 486 559 23,000 -120 Descending FlightAware ADS-B
06:51PM 41.1026 -75.1825 114° Southeast 491 565 23,000  Level FlightAware ADS-B
06:52PM 41.0745 -75.0997 114° Southeast 492 566 23,000  Level FlightAware ADS-B
06:52PM 41.0448 -75.0123 114° Southeast 490 564 23,000  Level FlightAware ADS-B
06:53PM 41.0142 -74.9216 114° Southeast 495 570 23,000  Level FlightAware ADS-B
06:53PM 40.9978 -74.8575 109° East 498 573 23,000  Level FlightAware ADS-B
06:53PM 40.9944 -74.8395 104° East 498 573 23,000 -180 Level FlightAware ADS-B
06:54PM 40.9822 -74.7497 100° East 492 566 22,900 -720 Descending FlightAware ADS-B
06:54PM 40.9721 -74.6561 98° East 473 544 22,300 -1,200 Descending FlightAware ADS-B
06:55PM 40.9634 -74.5714 98° East 455 524 21,700 -1,200 Descending FlightAware ADS-B
06:55PM 40.9548 -74.4905 98° East 437 503 21,100 -1,620 Descending FlightAware ADS-B
06:56PM 40.9460 -74.4093 98° East 430 495 20,100 -1,980 Descending FlightAware ADS-B
06:56PM 40.9365 -74.3389 100° East 425 489 19,200 -1,680 Descending FlightAware ADS-B
06:56PM 40.9273 -74.3080 111° Southeast 416 479 19,000 -480 Descending FlightAware ADS-B
06:57PM 40.9147 -74.2811 122° Southeast 415 478 19,000  Level FlightAware ADS-B
06:57PM 40.9010 -74.2603 131° Southeast 412 474 19,000  Level FlightAware ADS-B
06:57PM 40.8925 -74.2499 137° Southeast 412 474 19,000  Level FlightAware ADS-B
06:57PM 40.8476 -74.2012 141° Southeast 414 476 19,000 -300 Level FlightAware ADS-B
06:58PM 40.7931 -74.1432 141° Southeast 410 472 18,700 -600 Descending FlightAware ADS-B
06:59PM 40.7449 -74.0918 141° Southeast 385 443 18,300 -720 Descending FlightAware ADS-B
06:59PM 40.7113 -74.0554 141° Southeast 369 425 18,000 -1,080 Descending FlightAware ADS-B
06:59PM 40.6691 -74.0078 139° Southeast 359 413 17,300 -1,440 Descending FlightAware ADS-B
07:00PM 40.6313 -73.9651 139° Southeast 355 409 16,500 -1,740 Descending FlightAware ADS-B
07:00PM 40.5942 -73.9384 151° Southeast 334 384 15,700 -1,800 Descending FlightAware ADS-B
07:01PM 40.5513 -73.9163 159° South 326 375 14,800 -1,920 Descending FlightAware ADS-B
07:01PM 40.5273 -73.9048 160° South 322 371 14,200 -2,160 Descending FlightAware ADS-B
07:02PM 40.4815 -73.8835 161° South 324 373 13,000 -2,100 Descending FlightAware ADS-B
07:02PM 40.4391 -73.8641 161° South 318 366 12,000 -1,980 Descending FlightAware ADS-B
07:03PM 40.4081 -73.8494 160° South 319 367 11,300 -1,980 Descending FlightAware ADS-B
07:03PM 40.3675 -73.8227 153° Southeast 319 367 10,300 -1,980 Descending FlightAware ADS-B
07:03PM 40.3470 -73.8090 153° Southeast 315 362 9,800 -1,740 Descending FlightAware ADS-B
07:04PM 40.3317 -73.7982 152° Southeast 312 359 9,500 -1,440 Descending FlightAware ADS-B
07:04PM 40.3211 -73.7865 140° Southeast 314 361 9,300 -1,380 Descending FlightAware ADS-B
07:04PM 40.3135 -73.7728 126° Southeast 315 362 9,100 -1,500 Descending FlightAware ADS-B
07:04PM 40.3081 -73.7535 110° East 318 366 8,800 -1,680 Descending FlightAware ADS-B
07:04PM 40.3065 -73.7410 100° East 318 366 8,600 -1,920 Descending FlightAware ADS-B
07:04PM 40.3052 -73.7181 94° East 320 368 8,200 -2,280 Descending FlightAware ADS-B
07:04PM 40.3057 -73.7104 85° East 321 369 8,000 -2,220 Descending FlightAware ADS-B
07:05PM 40.3083 -73.6965 76° East 321 369 7,800 -1,740 Descending FlightAware ADS-B
07:05PM 40.3121 -73.6851 66° East 315 362 7,600 -1,440 Descending FlightAware ADS-B
07:05PM 40.3166 -73.6742 62° Northeast 312 359 7,500 -1,680 Descending FlightAware ADS-B
07:05PM 40.3280 -73.6493 59° Northeast 307 353 7,000 -1,860 Descending FlightAware ADS-B
07:05PM 40.3452 -73.6284 43° Northeast 296 341 6,500 -1,500 Descending FlightAware ADS-B
07:06PM 40.3877 -73.5948 31° Northeast 292 336 5,700 -1,320 Descending FlightAware ADS-B
07:07PM 40.4490 -73.5480 30° Northeast 288 331 4,500 -1,320 Descending FlightAware
07:07PM 40.4710 -73.5320 29° Northeast 285 328 4,100 -840 Descending FlightAware
07:08PM 40.4960 -73.5210 18° North 286 329 4,000 -180 Descending FlightAware
07:08PM 40.5220 -73.5090 19° North 285 328 4,000  Level FlightAware
07:08PM 40.5520 -73.4940 21° North 286 329 4,000  Level FlightAware
07:09PM 40.5760 -73.4820 21° North 285 328 4,000  Level FlightAware
07:09PM 40.5880 -73.4760 21° North 281 323 4,000  Level FlightAware
07:09PM 40.6150 -73.4620 21° North 260 299 4,000  Level FlightAware
07:10PM 40.6410 -73.4500 19° North 240 276 4,000  Level FlightAware
07:10PM 40.6520 -73.4470 12° North 222 255 4,000 120 Level FlightAware
07:10PM 40.6730 -73.4600 335° Northwest 197 227 4,100  Climbing FlightAware
07:10PM 40.6870 -73.4750 321° Northwest 189 217 4,000 -600 Descending FlightAware
07:11PM 40.7010 -73.4890 323° Northwest 182 209 3,700 -900 Descending FlightAware
07:11PM 40.7120 -73.5010 320° Northwest 181 208 3,400 -900 Descending FlightAware
07:12PM 40.7260 -73.5150 323° Northwest 178 205 3,100 -900 Descending FlightAware
07:12PM 40.7410 -73.5300 323° Northwest 170 196 2,800 -780 Descending FlightAware
07:12PM 40.7520 -73.5410 323° Northwest 170 196 2,600 -840 Descending FlightAware
07:12PM 40.7630 -73.5530 320° Northwest 170 196 2,300 -960 Descending FlightAware
07:13PM 40.7750 -73.5660 321° Northwest 168 193 2,000 -660 Descending FlightAware
07:13PM 40.7800 -73.5730 313° West 168 193 2,000  Level FlightAware
07:13PM 40.7820 -73.5820 286° West 171 197 2,000  Level FlightAware
07:13PM 40.7850 -73.6060 279° West 161 185 2,000  Level FlightAware
07:14PM 40.7800 -73.6350 257° West 161 185 2,000  Level FlightAware
07:14PM 40.7690 -73.6540 233° Southwest 165 190 2,000  Level FlightAware
07:15PM 40.7590 -73.6650 220° Southwest 167 192 2,000  Level FlightAware
07:15PM 40.7460 -73.6760 213° Southwest 165 190 2,000  Level FlightAware
07:15PM 40.7330 -73.6860 210° Southwest 172 198 2,000 -480 Level FlightAware
07:16PM 40.7200 -73.6970 213° Southwest 160 184 1,700 -840 Descending FlightAware
07:16PM 40.7060 -73.7070 208° Southwest 135 155 1,400 -720 Descending FlightAware
07:16PM 40.6960 -73.7160 214° Southwest 134 154 1,200 -660 Descending FlightAware
07:17PM 40.6850 -73.7240 209° Southwest 124 143 1,000 -600 Descending FlightAware
07:17PM 40.6760 -73.7310 211° Southwest 126 145 800 -720 Descending FlightAware
07:17PM 40.6630 -73.7410 210° Southwest 127 146 500 -780 Descending FlightAware
07:18PM 40.6550 -73.7470 210° Southwest 126 145 300 -600 Descending FlightAware
07:18PM 40.6430 -73.7570 212° Southwest 123 142 100 -480 Descending FlightAware
07:19PM 40.6340 -73.7630 207° Southwest 74 85 -300 Descending FlightAware